Time;durP1;ratioP1;P1;durP2;ratioP2;P2;SDS_P1;SDS_P2;PMS_P1;PMS_P2;Temp;Humidity;BMP_temperature;BMP_pressure;BME280_temperature;BME280_humidity;BME280_pressure;Samples;Min_cycle;Max_cycle;Signal;HPM_P1;HPM_P2
2023/06/27 00:01:26;;;;;;;10.20;2.60;;;;;;;;;;5033909;28;20451;-67
2023/06/27 00:03:53;;;;;;;4.70;2.53;;;;;;;;;;5034463;28;20455;-67
2023/06/27 00:06:21;;;;;;;2.37;2.17;;;;;;;;;;5033490;28;20952;-66
2023/06/27 00:08:48;;;;;;;4.67;2.50;;;;;;;;;;5033853;28;20473;-67
2023/06/27 00:11:15;;;;;;;5.27;2.57;;;;;;;;;;5034359;28;20460;-67
2023/06/27 00:13:43;;;;;;;3.57;2.90;;;;;;;;;;5034172;28;20536;-67
2023/06/27 00:16:15;;;;;;;9.30;2.60;;;;;;;;;;5033533;28;20570;-66
2023/06/27 00:18:48;;;;;;;3.73;2.23;;;;;;;;;;5033773;28;20446;-66
2023/06/27 00:21:15;;;;;;;3.90;2.73;;;;;;;;;;5033539;28;20514;-66
2023/06/27 00:23:43;;;;;;;2.53;2.33;;;;;;;;;;5033388;28;20446;-66
2023/06/27 00:26:12;;;;;;;3.93;2.47;;;;;;;;;;5033040;28;20447;-67
2023/06/27 00:28:39;;;;;;;4.63;2.60;;;;;;;;;;5033274;28;20500;-67
2023/06/27 00:31:06;;;;;;;4.80;2.70;;;;;;;;;;5032980;28;20987;-66
2023/06/27 00:33:34;;;;;;;3.57;2.77;;;;;;;;;;5033320;28;20493;-66
2023/06/27 00:36:02;;;;;;;4.63;2.50;;;;;;;;;;5033193;28;20504;-67
2023/06/27 00:38:29;;;;;;;4.93;2.57;;;;;;;;;;5033538;28;20446;-67
2023/06/27 00:40:56;;;;;;;3.40;2.33;;;;;;;;;;5033282;28;20439;-67
2023/06/27 00:43:24;;;;;;;17.73;2.90;;;;;;;;;;5033303;28;20449;-67
2023/06/27 00:45:51;;;;;;;5.07;2.60;;;;;;;;;;5033345;28;20448;-67
2023/06/27 00:48:18;;;;;;;4.33;2.73;;;;;;;;;;5033684;28;20798;-66
2023/06/27 00:50:46;;;;;;;5.53;2.97;;;;;;;;;;5033258;28;20457;-67
2023/06/27 00:53:15;;;;;;;7.00;2.87;;;;;;;;;;5035698;28;20452;-67
2023/06/27 00:55:42;;;;;;;5.83;2.30;;;;;;;;;;5039616;28;20567;-66
2023/06/27 00:58:10;;;;;;;6.30;2.87;;;;;;;;;;5039891;28;20458;-67
2023/06/27 01:00:37;;;;;;;4.13;2.90;;;;;;;;;;5039575;28;20521;-67
2023/06/27 01:03:04;;;;;;;3.67;2.87;;;;;;;;;;5039447;28;20440;-66
2023/06/27 01:05:33;;;;;;;4.27;2.97;;;;;;;;;;5040364;28;20797;-67
2023/06/27 01:08:03;;;;;;;4.73;3.07;;;;;;;;;;5039704;28;20546;-66
2023/06/27 01:10:34;;;;;;;7.50;2.93;;;;;;;;;;5040179;28;20439;-67
2023/06/27 01:13:04;;;;;;;7.20;2.83;;;;;;;;;;5039803;28;20918;-66
2023/06/27 01:15:31;;;;;;;6.83;3.87;;;;;;;;;;5039322;28;20586;-66
2023/06/27 01:17:59;;;;;;;6.37;2.63;;;;;;;;;;5039527;28;20470;-66
2023/06/27 01:20:26;;;;;;;4.97;2.93;;;;;;;;;;5039274;28;20470;-67
2023/06/27 01:22:59;;;;;;;4.57;2.63;;;;;;;;;;5040152;28;20438;-67
2023/06/27 01:25:27;;;;;;;6.20;2.80;;;;;;;;;;5039688;28;20814;-67
2023/06/27 01:27:55;;;;;;;6.60;3.07;;;;;;;;;;5039581;28;20525;-67
2023/06/27 01:30:22;;;;;;;8.03;3.23;;;;;;;;;;5039150;28;20459;-66
2023/06/27 01:32:51;;;;;;;6.30;3.07;;;;;;;;;;5039651;28;20847;-66
2023/06/27 01:35:21;;;;;;;4.00;3.47;;;;;;;;;;5039132;28;20458;-67
2023/06/27 01:37:51;;;;;;;5.13;2.90;;;;;;;;;;5039082;28;20923;-66
2023/06/27 01:40:20;;;;;;;4.10;2.93;;;;;;;;;;5039840;28;20455;-67
2023/06/27 01:42:51;;;;;;;6.03;3.23;;;;;;;;;;5039474;28;20446;-66
2023/06/27 01:45:19;;;;;;;3.50;2.77;;;;;;;;;;5039631;28;20759;-66
2023/06/27 01:47:46;;;;;;;8.50;3.23;;;;;;;;;;5039425;28;20446;-66
2023/06/27 01:50:14;;;;;;;7.93;2.90;;;;;;;;;;5039526;28;20453;-67
2023/06/27 01:52:41;;;;;;;5.20;3.37;;;;;;;;;;5039153;28;20516;-67
2023/06/27 01:55:09;;;;;;;7.80;3.00;;;;;;;;;;5039706;28;20446;-67
2023/06/27 01:57:38;;;;;;;5.40;3.33;;;;;;;;;;5039235;28;20508;-66
2023/06/27 02:00:07;;;;;;;3.40;3.20;;;;;;;;;;5039176;28;20454;-67
2023/06/27 02:02:34;;;;;;;3.27;2.93;;;;;;;;;;5039602;28;20448;-66
2023/06/27 02:05:02;;;;;;;5.10;3.67;;;;;;;;;;5035968;28;20509;-66
2023/06/27 02:07:29;;;;;;;4.43;3.57;;;;;;;;;;5036288;28;20511;-66
2023/06/27 02:09:56;;;;;;;4.00;3.27;;;;;;;;;;5036281;28;20454;-66
2023/06/27 02:12:23;;;;;;;6.00;3.50;;;;;;;;;;5035599;28;20939;-67
2023/06/27 02:14:50;;;;;;;3.80;3.27;;;;;;;;;;5036023;28;20463;-66
2023/06/27 02:17:19;;;;;;;5.93;3.40;;;;;;;;;;5035906;28;20485;-67
2023/06/27 02:19:46;;;;;;;3.30;3.10;;;;;;;;;;5035826;28;20441;-66
2023/06/27 02:22:13;;;;;;;4.43;3.70;;;;;;;;;;5035556;28;20439;-67
2023/06/27 02:24:40;;;;;;;3.93;3.60;;;;;;;;;;5035764;28;20452;-67
2023/06/27 02:27:08;;;;;;;5.90;3.80;;;;;;;;;;5035758;28;20811;-68
2023/06/27 02:29:35;;;;;;;6.50;3.43;;;;;;;;;;5035424;28;20443;-67
2023/06/27 02:32:02;;;;;;;4.43;3.60;;;;;;;;;;5035136;28;20453;-67
2023/06/27 02:34:31;;;;;;;4.20;3.80;;;;;;;;;;5035294;28;20456;-67
2023/06/27 02:36:58;;;;;;;5.73;3.40;;;;;;;;;;5035539;28;20479;-66
2023/06/27 02:39:25;;;;;;;4.80;3.63;;;;;;;;;;5035296;28;20453;-66
2023/06/27 02:41:53;;;;;;;7.30;3.93;;;;;;;;;;5035278;28;20999;-66
2023/06/27 02:44:20;;;;;;;8.90;3.97;;;;;;;;;;5035544;28;20449;-66
2023/06/27 02:46:47;;;;;;;5.07;3.10;;;;;;;;;;5035849;28;20445;-66
2023/06/27 02:49:14;;;;;;;8.33;3.33;;;;;;;;;;5035363;28;20445;-66
2023/06/27 02:51:43;;;;;;;6.63;3.90;;;;;;;;;;5035682;28;20510;-66
2023/06/27 02:54:10;;;;;;;4.93;3.60;;;;;;;;;;5035017;28;20562;-66
2023/06/27 02:56:37;;;;;;;6.57;3.57;;;;;;;;;;5035016;28;20487;-67
2023/06/27 02:59:04;;;;;;;4.57;3.90;;;;;;;;;;5035614;28;20475;-67
2023/06/27 03:01:32;;;;;;;6.03;3.90;;;;;;;;;;5035017;28;20440;-68
2023/06/27 03:03:59;;;;;;;9.73;4.10;;;;;;;;;;5034895;28;20945;-67
2023/06/27 03:06:26;;;;;;;4.57;3.80;;;;;;;;;;5034580;28;20451;-67
2023/06/27 03:08:55;;;;;;;7.83;4.00;;;;;;;;;;5035066;28;20462;-67
2023/06/27 03:11:22;;;;;;;4.50;4.10;;;;;;;;;;5034797;28;20450;-67
2023/06/27 03:13:49;;;;;;;5.57;3.57;;;;;;;;;;5034835;28;20440;-67
2023/06/27 03:16:16;;;;;;;8.33;3.60;;;;;;;;;;5034514;28;20465;-67
2023/06/27 03:18:43;;;;;;;4.80;4.10;;;;;;;;;;5035161;28;20748;-66
2023/06/27 03:21:10;;;;;;;6.20;4.63;;;;;;;;;;5034426;28;20472;-67
2023/06/27 03:23:38;;;;;;;7.40;4.30;;;;;;;;;;5035054;28;20452;-66
2023/06/27 03:26:06;;;;;;;5.00;4.07;;;;;;;;;;5034884;28;20454;-66
2023/06/27 03:28:33;;;;;;;8.40;4.97;;;;;;;;;;5034396;28;20489;-66
2023/06/27 03:31:00;;;;;;;5.17;3.93;;;;;;;;;;5034249;28;20448;-66
2023/06/27 03:33:28;;;;;;;5.97;4.50;;;;;;;;;;5034084;28;20445;-67
2023/06/27 03:35:55;;;;;;;10.30;4.80;;;;;;;;;;5034293;28;20448;-67
2023/06/27 03:38:22;;;;;;;7.80;5.20;;;;;;;;;;5034222;28;20917;-66
2023/06/27 03:40:50;;;;;;;6.47;4.83;;;;;;;;;;5034349;28;20447;-66
2023/06/27 03:43:18;;;;;;;10.50;4.70;;;;;;;;;;5033926;28;20438;-67
2023/06/27 03:45:46;;;;;;;4.43;4.03;;;;;;;;;;5034526;28;20448;-68
2023/06/27 03:48:13;;;;;;;5.70;4.27;;;;;;;;;;5034011;28;20981;-67
2023/06/27 03:50:40;;;;;;;6.00;4.20;;;;;;;;;;5034466;28;20538;-67
2023/06/27 03:53:07;;;;;;;7.00;4.73;;;;;;;;;;5034260;28;20486;-67
2023/06/27 03:55:37;;;;;;;5.00;4.30;;;;;;;;;;5027374;28;20451;-67
2023/06/27 03:58:04;;;;;;;13.37;5.40;;;;;;;;;;5013899;28;20519;-67
2023/06/27 04:00:33;;;;;;;8.03;4.60;;;;;;;;;;5013864;28;20454;-66
2023/06/27 04:03:00;;;;;;;4.53;4.10;;;;;;;;;;5013998;28;20817;-66
2023/06/27 04:05:27;;;;;;;4.87;4.27;;;;;;;;;;5013965;28;20446;-67
2023/06/27 04:07:54;;;;;;;4.23;3.90;;;;;;;;;;5014382;28;20459;-67
2023/06/27 04:10:21;;;;;;;5.93;4.30;;;;;;;;;;5014472;28;20448;-66
2023/06/27 04:12:49;;;;;;;6.70;4.50;;;;;;;;;;5013986;28;20440;-68
2023/06/27 04:15:16;;;;;;;6.70;4.70;;;;;;;;;;5013695;28;20447;-71
2023/06/27 04:17:45;;;;;;;5.97;4.83;;;;;;;;;;5013268;28;20481;-64
2023/06/27 04:20:12;;;;;;;5.77;4.50;;;;;;;;;;5013681;28;20473;-65
2023/06/27 04:22:40;;;;;;;6.73;4.23;;;;;;;;;;5013405;28;20985;-66
2023/06/27 04:25:10;;;;;;;8.10;5.10;;;;;;;;;;5013619;28;20466;-66
2023/06/27 04:27:37;;;;;;;8.77;4.63;;;;;;;;;;5012724;28;20435;-66
2023/06/27 04:30:05;;;;;;;10.47;4.73;;;;;;;;;;5013755;28;20530;-65
2023/06/27 04:32:33;;;;;;;6.63;4.37;;;;;;;;;;5013594;28;20445;-65
2023/06/27 04:35:03;;;;;;;4.70;4.00;;;;;;;;;;5013842;28;20812;-66
2023/06/27 04:37:30;;;;;;;7.93;5.07;;;;;;;;;;5013408;28;20491;-65
2023/06/27 04:39:57;;;;;;;9.60;4.73;;;;;;;;;;5013600;28;20929;-66
2023/06/27 04:42:25;;;;;;;5.23;4.43;;;;;;;;;;5013579;28;20803;-65
2023/06/27 04:44:52;;;;;;;7.33;4.23;;;;;;;;;;5013597;28;20439;-66
2023/06/27 04:47:19;;;;;;;7.50;4.87;;;;;;;;;;5013435;28;20466;-66
2023/06/27 04:49:46;;;;;;;5.77;4.97;;;;;;;;;;5013148;28;20531;-66
2023/06/27 04:52:15;;;;;;;5.50;4.93;;;;;;;;;;5013866;28;20448;-66
2023/06/27 04:54:42;;;;;;;7.07;5.00;;;;;;;;;;5013366;28;20455;-66
2023/06/27 04:57:10;;;;;;;5.27;4.83;;;;;;;;;;5013189;28;20589;-66
2023/06/27 04:59:37;;;;;;;6.33;5.30;;;;;;;;;;5013384;28;20447;-66
2023/06/27 05:02:05;;;;;;;10.17;5.07;;;;;;;;;;5013116;28;20446;-65
2023/06/27 05:04:32;;;;;;;10.33;5.10;;;;;;;;;;5013501;28;20870;-65
2023/06/27 05:06:59;;;;;;;6.77;5.10;;;;;;;;;;5013373;28;20442;-65
2023/06/27 05:09:28;;;;;;;6.27;5.07;;;;;;;;;;5013313;28;20453;-65
2023/06/27 05:11:55;;;;;;;8.30;5.43;;;;;;;;;;5013939;28;20480;-66
2023/06/27 05:14:23;;;;;;;7.33;5.10;;;;;;;;;;5013206;28;20451;-64
2023/06/27 05:16:50;;;;;;;6.17;5.00;;;;;;;;;;5013605;28;20451;-65
2023/06/27 05:19:17;;;;;;;7.40;5.23;;;;;;;;;;5013190;28;20535;-66
2023/06/27 05:21:45;;;;;;;7.23;5.43;;;;;;;;;;5013541;28;20556;-65
2023/06/27 05:24:12;;;;;;;5.80;5.27;;;;;;;;;;5012847;28;20448;-65
2023/06/27 05:26:40;;;;;;;9.00;6.23;;;;;;;;;;5012955;28;20449;-65
2023/06/27 05:29:08;;;;;;;6.50;5.13;;;;;;;;;;5012813;28;20460;-66
2023/06/27 05:31:35;;;;;;;8.73;6.37;;;;;;;;;;5013691;28;20536;-64
2023/06/27 05:34:02;;;;;;;8.37;5.20;;;;;;;;;;5013487;28;20536;-65
2023/06/27 05:36:29;;;;;;;6.43;5.77;;;;;;;;;;5012874;28;20960;-65
2023/06/27 05:38:56;;;;;;;6.80;6.03;;;;;;;;;;5013653;28;20494;-65
2023/06/27 05:41:23;;;;;;;7.13;5.67;;;;;;;;;;5016797;28;20444;-65
2023/06/27 05:43:52;;;;;;;7.50;5.53;;;;;;;;;;5017197;28;20442;-65
2023/06/27 05:46:19;;;;;;;10.77;6.13;;;;;;;;;;5016796;28;20443;-65
2023/06/27 05:48:46;;;;;;;7.30;5.50;;;;;;;;;;5016829;28;20462;-66
2023/06/27 05:51:14;;;;;;;9.47;5.70;;;;;;;;;;5016380;28;20546;-65
2023/06/27 05:53:41;;;;;;;10.03;6.27;;;;;;;;;;5016787;28;20445;-66
2023/06/27 05:56:08;;;;;;;9.10;6.00;;;;;;;;;;5016656;28;20462;-66
2023/06/27 05:58:36;;;;;;;7.40;6.23;;;;;;;;;;5016049;28;20502;-66
2023/06/27 06:01:04;;;;;;;10.20;6.80;;;;;;;;;;5016529;28;20454;-65
2023/06/27 06:03:33;;;;;;;9.87;6.70;;;;;;;;;;5016035;28;20448;-65
2023/06/27 06:06:01;;;;;;;12.63;5.97;;;;;;;;;;5016359;28;20443;-65
2023/06/27 06:08:28;;;;;;;11.27;6.33;;;;;;;;;;5016390;28;20479;-64
2023/06/27 06:10:55;;;;;;;8.93;6.50;;;;;;;;;;5016275;28;20443;-64
2023/06/27 06:13:22;;;;;;;10.27;6.30;;;;;;;;;;5015980;28;20455;-65
2023/06/27 06:15:49;;;;;;;8.40;6.60;;;;;;;;;;5016183;28;20538;-66
2023/06/27 06:18:18;;;;;;;7.03;5.60;;;;;;;;;;5016195;28;20476;-65
2023/06/27 06:20:45;;;;;;;7.87;5.67;;;;;;;;;;5015977;28;20480;-65
2023/06/27 06:23:12;;;;;;;9.50;5.73;;;;;;;;;;5015767;28;20452;-65
2023/06/27 06:25:39;;;;;;;7.33;6.37;;;;;;;;;;5015717;28;20447;-65
2023/06/27 06:28:07;;;;;;;18.13;7.23;;;;;;;;;;5015749;28;20454;-64
2023/06/27 06:30:34;;;;;;;10.50;6.00;;;;;;;;;;5016095;28;20451;-65
2023/06/27 06:33:01;;;;;;;12.30;6.80;;;;;;;;;;5016077;28;20853;-65
2023/06/27 06:35:30;;;;;;;9.90;6.50;;;;;;;;;;5015940;28;20528;-65
2023/06/27 06:37:57;;;;;;;8.67;6.37;;;;;;;;;;5016093;28;20490;-65
2023/06/27 06:40:29;;;;;;;9.57;5.77;;;;;;;;;;5015697;28;20451;-65
2023/06/27 06:42:56;;;;;;;11.63;6.70;;;;;;;;;;5015548;28;20448;-65
2023/06/27 06:45:23;;;;;;;8.40;5.80;;;;;;;;;;5015318;28;20453;-65
2023/06/27 06:47:51;;;;;;;11.23;6.20;;;;;;;;;;5015654;28;20443;-65
2023/06/27 06:50:18;;;;;;;18.00;6.57;;;;;;;;;;5015385;28;20462;-66
2023/06/27 06:52:47;;;;;;;9.90;5.87;;;;;;;;;;5015243;28;20446;-65
2023/06/27 06:55:14;;;;;;;12.50;6.50;;;;;;;;;;5015055;28;20451;-65
2023/06/27 06:57:41;;;;;;;8.73;6.07;;;;;;;;;;5015083;28;20450;-65
2023/06/27 07:00:09;;;;;;;10.60;6.23;;;;;;;;;;5015198;28;20927;-65
2023/06/27 07:02:36;;;;;;;13.40;6.60;;;;;;;;;;5015404;28;20443;-64
2023/06/27 07:05:04;;;;;;;9.07;7.00;;;;;;;;;;5015349;28;20450;-65
2023/06/27 07:07:32;;;;;;;9.67;5.83;;;;;;;;;;5015316;28;20523;-65
2023/06/27 07:10:00;;;;;;;10.20;7.40;;;;;;;;;;5015007;28;20460;-65
2023/06/27 07:12:28;;;;;;;12.60;6.30;;;;;;;;;;5014883;28;20452;-65
2023/06/27 07:14:55;;;;;;;9.07;6.00;;;;;;;;;;5014696;28;20453;-65
2023/06/27 07:17:22;;;;;;;9.10;5.17;;;;;;;;;;5015246;28;20454;-65
2023/06/27 07:19:49;;;;;;;10.27;5.50;;;;;;;;;;5014459;28;20588;-65
2023/06/27 07:22:17;;;;;;;11.80;6.37;;;;;;;;;;5015186;28;20500;-65
2023/06/27 07:24:44;;;;;;;9.30;5.30;;;;;;;;;;5014871;28;20560;-65
2023/06/27 07:27:12;;;;;;;8.70;5.40;;;;;;;;;;5014847;28;20452;-65
2023/06/27 07:29:39;;;;;;;8.17;4.83;;;;;;;;;;5014735;28;20452;-66
2023/06/27 07:32:07;;;;;;;9.20;4.87;;;;;;;;;;5015244;28;20454;-64
2023/06/27 07:34:35;;;;;;;12.53;4.47;;;;;;;;;;5014465;28;20541;-65
2023/06/27 07:37:02;;;;;;;6.70;4.53;;;;;;;;;;5014621;28;20451;-65
2023/06/27 07:39:30;;;;;;;10.33;4.33;;;;;;;;;;5014514;28;20574;-64
2023/06/27 07:41:57;;;;;;;6.77;4.07;;;;;;;;;;5014539;28;20445;-65
2023/06/27 07:44:26;;;;;;;9.57;4.57;;;;;;;;;;5014271;28;20456;-64
2023/06/27 07:46:53;;;;;;;12.70;5.00;;;;;;;;;;5014218;28;20454;-65
2023/06/27 07:49:26;;;;;;;15.00;5.23;;;;;;;;;;5014976;28;20555;-65
2023/06/27 07:51:53;;;;;;;9.33;5.43;;;;;;;;;;5014059;28;20940;-65
2023/06/27 07:54:21;;;;;;;13.10;5.33;;;;;;;;;;5014798;28;20919;-66
2023/06/27 07:56:48;;;;;;;11.30;5.23;;;;;;;;;;5014497;28;20454;-65
2023/06/27 07:59:16;;;;;;;7.43;4.80;;;;;;;;;;5014266;28;20825;-65
2023/06/27 08:01:45;;;;;;;7.80;5.37;;;;;;;;;;5013150;28;20457;-66
2023/06/27 08:04:12;;;;;;;7.57;5.30;;;;;;;;;;5013217;28;20440;-65
2023/06/27 08:06:39;;;;;;;7.37;5.37;;;;;;;;;;5013812;28;20536;-65
2023/06/27 08:09:07;;;;;;;11.30;5.43;;;;;;;;;;5014116;28;20458;-66
2023/06/27 08:11:34;;;;;;;16.77;5.67;;;;;;;;;;5014681;28;20449;-65
2023/06/27 08:14:01;;;;;;;10.73;5.90;;;;;;;;;;5014284;28;20494;-65
2023/06/27 08:16:28;;;;;;;12.77;5.33;;;;;;;;;;5013790;28;21017;-65
2023/06/27 08:18:57;;;;;;;10.47;5.03;;;;;;;;;;5013990;28;20481;-65
2023/06/27 08:21:24;;;;;;;8.53;5.93;;;;;;;;;;5014127;28;20566;-65
2023/06/27 08:23:51;;;;;;;9.20;5.40;;;;;;;;;;5013707;28;20938;-65
2023/06/27 08:26:19;;;;;;;7.20;5.17;;;;;;;;;;5013818;28;20571;-65
2023/06/27 08:28:46;;;;;;;11.67;5.67;;;;;;;;;;5014078;28;20447;-65
2023/06/27 08:31:14;;;;;;;10.53;5.63;;;;;;;;;;5013966;28;20454;-65
2023/06/27 08:33:41;;;;;;;8.87;5.80;;;;;;;;;;5014513;28;20508;-65
2023/06/27 08:36:10;;;;;;;8.93;4.97;;;;;;;;;;5013803;28;20448;-64
2023/06/27 08:38:37;;;;;;;14.80;5.33;;;;;;;;;;5014028;28;20486;-64
2023/06/27 08:41:04;;;;;;;11.03;5.40;;;;;;;;;;5013996;28;20481;-64
2023/06/27 08:43:31;;;;;;;11.13;5.97;;;;;;;;;;5013454;28;20442;-65
2023/06/27 08:45:58;;;;;;;9.33;4.97;;;;;;;;;;5013700;28;20462;-66
2023/06/27 08:48:26;;;;;;;9.70;5.33;;;;;;;;;;5014057;28;20454;-64
2023/06/27 08:50:54;;;;;;;12.83;5.60;;;;;;;;;;5013575;28;20470;-65
2023/06/27 08:53:24;;;;;;;9.97;5.07;;;;;;;;;;5013291;28;20458;-65
2023/06/27 08:55:54;;;;;;;11.97;4.20;;;;;;;;;;5013445;28;20475;-65
2023/06/27 08:58:25;;;;;;;6.73;3.77;;;;;;;;;;5013933;28;20793;-65
2023/06/27 09:00:54;;;;;;;7.40;4.50;;;;;;;;;;5013456;28;20450;-66
2023/06/27 09:03:21;;;;;;;8.77;3.70;;;;;;;;;;5013213;28;20514;-65
2023/06/27 09:05:49;;;;;;;7.90;3.83;;;;;;;;;;5013514;28;20881;-65
2023/06/27 09:08:16;;;;;;;10.47;3.60;;;;;;;;;;5013370;28;20452;-65
2023/06/27 09:10:45;;;;;;;7.97;3.63;;;;;;;;;;5013163;28;20534;-65
2023/06/27 09:13:14;;;;;;;8.73;3.83;;;;;;;;;;5013313;28;20494;-65
2023/06/27 09:15:41;;;;;;;5.67;3.40;;;;;;;;;;5016760;28;20454;-64
2023/06/27 09:18:08;;;;;;;6.23;3.50;;;;;;;;;;5017186;28;20439;-65
2023/06/27 09:20:36;;;;;;;9.73;2.90;;;;;;;;;;5016716;28;20467;-64
2023/06/27 09:23:05;;;;;;;5.20;2.50;;;;;;;;;;5017317;28;20447;-64
2023/06/27 09:25:32;;;;;;;9.13;2.83;;;;;;;;;;5017163;28;20439;-65
2023/06/27 09:28:03;;;;;;;7.10;2.97;;;;;;;;;;5016863;28;20450;-64
2023/06/27 09:30:32;;;;;;;4.97;2.80;;;;;;;;;;5017527;28;20482;-64
2023/06/27 09:32:59;;;;;;;6.10;2.60;;;;;;;;;;5016976;28;20446;-65
2023/06/27 09:35:27;;;;;;;4.53;2.87;;;;;;;;;;5017019;28;20441;-65
2023/06/27 09:38:04;;;;;;;5.87;2.63;;;;;;;;;;5016875;28;20542;-64
2023/06/27 09:40:32;;;;;;;4.80;2.80;;;;;;;;;;5017075;28;20901;-65
2023/06/27 09:43:00;;;;;;;5.00;2.87;;;;;;;;;;5016763;28;20495;-64
2023/06/27 09:45:29;;;;;;;5.20;2.33;;;;;;;;;;5016629;28;20454;-64
2023/06/27 09:47:57;;;;;;;5.87;2.77;;;;;;;;;;5016698;28;20493;-64
2023/06/27 09:50:26;;;;;;;4.60;2.67;;;;;;;;;;5016648;28;20454;-64
2023/06/27 09:52:54;;;;;;;8.07;2.87;;;;;;;;;;5016638;28;20451;-64
2023/06/27 09:55:21;;;;;;;9.53;2.40;;;;;;;;;;5016600;28;20884;-64
2023/06/27 09:57:49;;;;;;;6.30;2.90;;;;;;;;;;5016315;28;20457;-65
2023/06/27 10:00:20;;;;;;;6.50;2.60;;;;;;;;;;5016428;28;20471;-64
2023/06/27 10:02:48;;;;;;;9.23;2.60;;;;;;;;;;5016476;28;20501;-64
2023/06/27 10:05:15;;;;;;;6.30;3.07;;;;;;;;;;5016447;28;20446;-64
2023/06/27 10:07:44;;;;;;;5.77;3.07;;;;;;;;;;5016172;28;20465;-64
2023/06/27 10:10:11;;;;;;;4.33;2.70;;;;;;;;;;5016072;28;20531;-64
2023/06/27 10:12:38;;;;;;;7.33;3.00;;;;;;;;;;5016930;28;20451;-65
2023/06/27 10:15:08;;;;;;;6.07;2.93;;;;;;;;;;5016046;28;20516;-64
2023/06/27 10:17:37;;;;;;;5.13;2.60;;;;;;;;;;5016141;28;20443;-66
2023/06/27 10:20:08;;;;;;;7.30;2.73;;;;;;;;;;5016515;28;20831;-65
2023/06/27 10:22:36;;;;;;;4.50;2.57;;;;;;;;;;5015853;28;20443;-65
2023/06/27 10:25:05;;;;;;;6.70;2.40;;;;;;;;;;5015463;28;21002;-65
2023/06/27 10:27:34;;;;;;;6.77;3.27;;;;;;;;;;5015108;28;20443;-64
2023/06/27 10:30:04;;;;;;;7.87;3.00;;;;;;;;;;5015698;28;20945;-65
2023/06/27 10:32:40;;;;;;;4.07;2.70;;;;;;;;;;5015887;28;20448;-65
2023/06/27 10:35:10;;;;;;;5.20;2.77;;;;;;;;;;5016344;28;20447;-65
2023/06/27 10:37:40;;;;;;;7.70;3.10;;;;;;;;;;5016067;28;20773;-64
2023/06/27 10:40:10;;;;;;;5.53;2.50;;;;;;;;;;5015317;28;20486;-64
2023/06/27 10:42:38;;;;;;;5.23;2.70;;;;;;;;;;5015707;28;20470;-64
2023/06/27 10:45:09;;;;;;;4.03;2.70;;;;;;;;;;5015822;28;20812;-64
2023/06/27 10:47:38;;;;;;;3.90;2.50;;;;;;;;;;5015302;28;20522;-65
2023/06/27 10:50:10;;;;;;;4.13;3.70;;;;;;;;;;5015421;28;20913;-65
2023/06/27 10:52:38;;;;;;;5.20;2.20;;;;;;;;;;5015961;28;20466;-65
2023/06/27 10:55:25;;;;;;;3.63;2.73;;;;;;;;;;5015541;28;20479;-65
2023/06/27 10:57:58;;;;;;;3.70;2.30;;;;;;;;;;5015484;28;20530;-65
2023/06/27 11:00:28;;;;;;;4.77;2.40;;;;;;;;;;5015675;28;20485;-65
2023/06/27 11:02:57;;;;;;;3.67;3.27;;;;;;;;;;5014961;28;20447;-65
2023/06/27 11:05:39;;;;;;;2.77;2.33;;;;;;;;;;5015216;28;21052;-64
2023/06/27 11:08:10;;;;;;;5.70;2.30;;;;;;;;;;5012235;28;20448;-65
2023/06/27 11:10:40;;;;;;;2.83;2.33;;;;;;;;;;5015322;28;20843;-64
2023/06/27 11:13:14;;;;;;;9.33;2.50;;;;;;;;;;5014709;28;21012;-65
2023/06/27 11:15:42;;;;;;;5.90;2.07;;;;;;;;;;5015418;28;20443;-65
2023/06/27 11:18:10;;;;;;;3.23;2.40;;;;;;;;;;5015501;28;20448;-64
2023/06/27 11:20:37;;;;;;;4.40;2.13;;;;;;;;;;5014509;28;21051;-64
2023/06/27 11:23:04;;;;;;;3.23;2.40;;;;;;;;;;5014654;28;20996;-64
2023/06/27 11:25:38;;;;;;;5.87;2.90;;;;;;;;;;5015038;28;20471;-64
2023/06/27 11:28:05;;;;;;;3.37;2.47;;;;;;;;;;5014919;28;20432;-64
2023/06/27 11:30:33;;;;;;;4.63;2.17;;;;;;;;;;5014592;28;20966;-64
2023/06/27 11:33:01;;;;;;;4.10;2.30;;;;;;;;;;5014735;28;20494;-65
2023/06/27 11:35:28;;;;;;;2.17;1.80;;;;;;;;;;5015370;28;20523;-64
2023/06/27 11:37:56;;;;;;;2.63;2.43;;;;;;;;;;5014468;28;20499;-65
2023/06/27 11:40:24;;;;;;;3.20;2.60;;;;;;;;;;5014479;28;20475;-65
2023/06/27 11:42:52;;;;;;;3.37;2.37;;;;;;;;;;5014575;28;20994;-64
2023/06/27 11:45:20;;;;;;;6.80;2.20;;;;;;;;;;5014784;28;20447;-64
2023/06/27 11:47:47;;;;;;;8.43;2.40;;;;;;;;;;5014380;28;20538;-64
2023/06/27 11:50:14;;;;;;;4.70;2.53;;;;;;;;;;5014282;28;20458;-64
2023/06/27 11:52:42;;;;;;;6.53;2.53;;;;;;;;;;5014097;28;20443;-64
2023/06/27 11:55:09;;;;;;;7.30;2.40;;;;;;;;;;5014329;28;20778;-64
2023/06/27 11:57:46;;;;;;;4.40;2.27;;;;;;;;;;5014216;28;20455;-64
2023/06/27 12:00:16;;;;;;;5.67;2.67;;;;;;;;;;5013867;28;20542;-64
2023/06/27 12:02:43;;;;;;;3.43;2.13;;;;;;;;;;5014920;28;20443;-64
2023/06/27 12:05:15;;;;;;;9.00;2.17;;;;;;;;;;5014025;28;20563;-64
2023/06/27 12:07:42;;;;;;;5.33;2.23;;;;;;;;;;5014392;28;20454;-65
2023/06/27 12:10:10;;;;;;;5.83;3.23;;;;;;;;;;5013755;28;20958;-66
2023/06/27 12:12:38;;;;;;;4.47;3.00;;;;;;;;;;5014489;28;20445;-66
2023/06/27 12:15:12;;;;;;;9.23;3.87;;;;;;;;;;5013968;28;20455;-66
2023/06/27 12:17:41;;;;;;;5.17;4.60;;;;;;;;;;5014106;28;20853;-70
2023/06/27 12:20:08;;;;;;;6.27;4.37;;;;;;;;;;5013738;28;20850;-68
2023/06/27 12:22:36;;;;;;;13.53;4.17;;;;;;;;;;5014575;28;20445;-67
2023/06/27 12:25:03;;;;;;;10.00;4.20;;;;;;;;;;5014184;28;20457;-67
2023/06/27 12:27:35;;;;;;;6.83;3.87;;;;;;;;;;5014033;28;20947;-66
2023/06/27 12:30:03;;;;;;;5.87;3.70;;;;;;;;;;5013887;28;20472;-67
2023/06/27 12:32:30;;;;;;;10.10;3.13;;;;;;;;;;5013798;28;20450;-67
2023/06/27 12:34:58;;;;;;;7.80;4.07;;;;;;;;;;5013811;28;20450;-67
2023/06/27 12:37:27;;;;;;;6.50;3.80;;;;;;;;;;5014722;28;20548;-67
2023/06/27 12:39:54;;;;;;;4.00;3.40;;;;;;;;;;5024775;28;20481;-66
2023/06/27 12:42:21;;;;;;;9.37;3.37;;;;;;;;;;5013528;28;20884;-66
2023/06/27 12:44:49;;;;;;;4.53;3.00;;;;;;;;;;5013541;28;20452;-67
2023/06/27 12:47:16;;;;;;;5.33;3.10;;;;;;;;;;5013554;28;20454;-67
2023/06/27 12:49:44;;;;;;;6.37;2.83;;;;;;;;;;5012781;28;20454;-67
2023/06/27 12:52:12;;;;;;;4.83;3.10;;;;;;;;;;5013195;28;20442;-67
2023/06/27 12:54:39;;;;;;;6.57;3.10;;;;;;;;;;5013450;28;20476;-66
2023/06/27 12:57:07;;;;;;;9.63;3.07;;;;;;;;;;5013496;28;20444;-67
2023/06/27 12:59:34;;;;;;;8.13;2.80;;;;;;;;;;5013259;28;20450;-66
2023/06/27 13:02:01;;;;;;;5.47;3.10;;;;;;;;;;5013761;28;20816;-66
2023/06/27 13:04:30;;;;;;;6.37;2.57;;;;;;;;;;5013044;28;20455;-67
2023/06/27 13:06:57;;;;;;;5.40;2.30;;;;;;;;;;5013481;28;20495;-66
2023/06/27 13:09:26;;;;;;;3.90;2.57;;;;;;;;;;5012938;28;20452;-66
2023/06/27 13:11:53;;;;;;;4.57;2.30;;;;;;;;;;5012931;28;20455;-66
2023/06/27 13:14:20;;;;;;;5.53;2.00;;;;;;;;;;5013091;28;20451;-66
2023/06/27 13:16:47;;;;;;;2.33;1.90;;;;;;;;;;5012708;28;20554;-66
2023/06/27 13:19:15;;;;;;;2.20;2.00;;;;;;;;;;5013034;28;20478;-66
2023/06/27 13:21:42;;;;;;;4.73;2.07;;;;;;;;;;5012443;28;20494;-66
2023/06/27 13:24:11;;;;;;;2.70;2.10;;;;;;;;;;5013544;28;20451;-66
2023/06/27 13:26:40;;;;;;;5.70;2.80;;;;;;;;;;5012954;28;21008;-66
2023/06/27 13:29:08;;;;;;;2.43;1.50;;;;;;;;;;5012938;28;20444;-66
2023/06/27 13:31:35;;;;;;;2.77;1.43;;;;;;;;;;5012978;28;20553;-65
2023/06/27 13:34:03;;;;;;;2.50;1.70;;;;;;;;;;5012768;28;20461;-65
2023/06/27 13:36:30;;;;;;;2.30;1.73;;;;;;;;;;5013016;28;20501;-64
2023/06/27 13:38:57;;;;;;;2.27;1.43;;;;;;;;;;5012551;28;20545;-65
2023/06/27 13:41:24;;;;;;;3.53;1.80;;;;;;;;;;5012649;28;20486;-72
2023/06/27 13:43:53;;;;;;;3.00;1.63;;;;;;;;;;5012638;28;20531;-68
2023/06/27 13:46:20;;;;;;;4.40;1.53;;;;;;;;;;5012835;28;20474;-66
2023/06/27 13:48:47;;;;;;;3.67;1.60;;;;;;;;;;5012976;28;20454;-67
2023/06/27 13:51:15;;;;;;;3.00;1.87;;;;;;;;;;5012792;28;20511;-67
2023/06/27 13:53:42;;;;;;;3.80;2.43;;;;;;;;;;5012443;28;20924;-67
2023/06/27 13:56:09;;;;;;;4.70;1.93;;;;;;;;;;5012431;28;20445;-66
2023/06/27 13:58:36;;;;;;;9.43;2.23;;;;;;;;;;5012631;28;20472;-66
2023/06/27 14:01:05;;;;;;;1.90;1.53;;;;;;;;;;5014350;28;20567;-67
2023/06/27 14:03:32;;;;;;;4.10;1.90;;;;;;;;;;5016280;28;20453;-66
2023/06/27 14:06:00;;;;;;;2.60;1.70;;;;;;;;;;5015787;28;20449;-73
2023/06/27 14:08:27;;;;;;;3.20;1.60;;;;;;;;;;5016095;28;20765;-71
2023/06/27 14:10:54;;;;;;;4.40;1.90;;;;;;;;;;5016029;28;20461;-67
2023/06/27 14:13:21;;;;;;;3.93;2.20;;;;;;;;;;5015887;28;20458;-65
2023/06/27 14:15:49;;;;;;;2.27;1.63;;;;;;;;;;5015578;28;21024;-65
2023/06/27 14:18:17;;;;;;;4.00;1.80;;;;;;;;;;5016259;28;20495;-64
2023/06/27 14:20:44;;;;;;;2.60;1.43;;;;;;;;;;5015852;28;20913;-65
2023/06/27 14:23:11;;;;;;;3.07;1.50;;;;;;;;;;5015806;28;20448;-66
2023/06/27 14:25:39;;;;;;;4.70;1.90;;;;;;;;;;5016211;28;20444;-65
2023/06/27 14:28:06;;;;;;;3.17;1.50;;;;;;;;;;5016172;28;20442;-66
2023/06/27 14:30:33;;;;;;;1.70;1.60;;;;;;;;;;5015526;28;20444;-64
2023/06/27 14:33:00;;;;;;;4.53;2.10;;;;;;;;;;5015686;28;20481;-65
2023/06/27 14:35:29;;;;;;;3.47;1.97;;;;;;;;;;5015790;28;20448;-65
2023/06/27 14:37:56;;;;;;;4.07;1.90;;;;;;;;;;5015115;28;20533;-64
2023/06/27 14:40:23;;;;;;;5.80;2.30;;;;;;;;;;5015342;28;20481;-65
2023/06/27 14:42:52;;;;;;;6.43;2.50;;;;;;;;;;5015389;28;20885;-65
2023/06/27 14:45:19;;;;;;;3.60;1.67;;;;;;;;;;5015500;28;20451;-69